Time;durP1;ratioP1;P1;durP2;ratioP2;P2;SDS_P1;SDS_P2;PMS_P1;PMS_P2;Temp;Humidity;BMP_temperature;BMP_pressure;BME280_temperature;BME280_humidity;BME280_pressure;Samples;Min_cycle;Max_cycle;Signal;HPM_P1;HPM_P2
2023/10/17 00:02:32;;;;;;;17.38;9.45;;;4.00;99.90;;;;;;2603335;54;20034;31
2023/10/17 00:05:08;;;;;;;20.02;10.45;;;3.90;99.90;;;;;;2603421;54;20034;31
2023/10/17 00:07:46;;;;;;;17.10;9.82;;;3.90;99.90;;;;;;2603246;54;20548;31
2023/10/17 00:10:32;;;;;;;21.60;11.25;;;3.90;99.90;;;;;;2603620;54;20050;31
2023/10/17 00:13:25;;;;;;;22.05;11.52;;;3.90;99.90;;;;;;2603322;54;20874;31
2023/10/17 00:16:03;;;;;;;16.30;10.43;;;3.80;99.90;;;;;;2603171;54;20037;31
2023/10/17 00:18:41;;;;;;;23.23;11.35;;;3.80;99.90;;;;;;2621799;46;20057;31
2023/10/17 00:21:22;;;;;;;23.58;12.20;;;3.80;99.90;;;;;;2773178;31;21567;31
2023/10/17 00:23:59;;;;;;;27.30;14.15;;;3.80;99.90;;;;;;2603470;54;20038;31
2023/10/17 00:26:38;;;;;;;24.90;13.90;;;3.70;99.90;;;;;;2701605;39;20508;31
2023/10/17 00:29:15;;;;;;;25.00;11.60;;;3.70;99.90;;;;;;2603454;54;19941;31
2023/10/17 00:31:51;;;;;;;;;;;3.60;99.90;;;;;;2603594;54;20097;31
2023/10/17 00:34:34;;;;;;;30.30;12.65;;;3.60;99.90;;;;;;2621993;46;20013;31
2023/10/17 00:37:10;;;;;;;31.50;13.30;;;3.60;99.90;;;;;;2603267;54;20031;31
2023/10/17 00:39:51;;;;;;;36.23;13.10;;;3.60;99.90;;;;;;2603151;54;20833;31
2023/10/17 00:45:04;;;;;;;31.38;13.05;;;3.50;99.90;;;;;;2603569;54;20034;31
2023/10/17 00:47:41;;;;;;;27.90;13.95;;;3.50;99.90;;;;;;2701589;39;21518;31
2023/10/17 00:50:21;;;;;;;28.25;13.10;;;3.40;99.90;;;;;;2621256;46;20033;31
2023/10/17 00:53:00;;;;;;;25.70;13.20;;;3.40;99.90;;;;;;2603114;54;20807;31
2023/10/17 00:55:37;;;;;;;28.65;12.55;;;3.40;99.90;;;;;;2603193;54;20038;31
2023/10/17 01:00:49;;;;;;;35.85;16.00;;;3.40;99.90;;;;;;2603122;54;20033;31
2023/10/17 01:03:29;;;;;;;30.38;14.93;;;3.40;99.90;;;;;;2602405;54;20825;31
2023/10/17 01:06:23;;;;;;;28.15;13.55;;;3.40;99.90;;;;;;2603333;54;20084;31
2023/10/17 01:09:08;;;;;;;23.85;14.27;;;3.30;99.90;;;;;;2602479;54;20866;31
2023/10/17 01:11:45;;;;;;;25.98;12.63;;;3.30;99.90;;;;;;2621831;46;20023;31
2023/10/17 01:14:23;;;;;;;33.47;14.77;;;3.20;99.90;;;;;;2603192;54;20914;31
2023/10/17 01:17:05;;;;;;;29.27;13.48;;;3.20;99.90;;;;;;2603084;54;20585;31
2023/10/17 01:19:43;;;;;;;33.95;14.23;;;3.20;99.90;;;;;;2602886;54;20042;31
2023/10/17 01:22:23;;;;;;;30.88;14.10;;;3.20;99.90;;;;;;2772906;31;20621;31
2023/10/17 01:25:17;;;;;;;39.08;17.05;;;3.20;99.90;;;;;;2603163;54;19973;31
2023/10/17 01:27:57;;;;;;;36.38;16.35;;;3.20;99.90;;;;;;2603025;54;20018;31
2023/10/17 01:30:35;;;;;;;36.92;17.05;;;3.20;99.90;;;;;;2602944;54;20023;31
2023/10/17 01:33:12;;;;;;;42.33;16.83;;;3.10;99.90;;;;;;2621693;46;20030;31
2023/10/17 01:35:48;;;;;;;37.50;15.50;;;3.10;99.90;;;;;;2700652;39;21461;31
2023/10/17 01:38:26;;;;;;;35.13;16.02;;;3.00;99.90;;;;;;2602205;54;20066;31
2023/10/17 01:41:06;;;;;;;37.55;16.92;;;3.10;99.90;;;;;;2611287;46;21012;31
2023/10/17 01:43:45;;;;;;;34.58;15.93;;;3.10;99.90;;;;;;2603178;54;20577;31
2023/10/17 01:46:28;;;;;;;39.13;17.13;;;3.00;99.90;;;;;;2621252;47;20038;31
2023/10/17 01:49:10;;;;;;;34.35;15.13;;;3.00;99.90;;;;;;2602408;54;19985;31
2023/10/17 01:51:49;;;;;;;30.00;15.75;;;3.00;99.90;;;;;;2602241;54;20847;31
2023/10/17 01:54:27;;;;;;;31.55;15.85;;;3.00;99.90;;;;;;2602963;54;20085;31
2023/10/17 01:57:08;;;;;;;32.03;13.75;;;3.00;99.90;;;;;;2602879;54;20652;31
2023/10/17 01:59:44;;;;;;;36.00;16.42;;;3.00;99.90;;;;;;2603001;54;20811;31
2023/10/17 02:02:23;;;;;;;32.03;14.38;;;3.00;99.90;;;;;;2602974;54;20577;31
2023/10/17 02:05:02;;;;;;;33.47;14.97;;;3.00;99.90;;;;;;2602904;54;20034;31
2023/10/17 02:07:40;;;;;;;30.15;13.55;;;3.00;99.90;;;;;;2602868;54;20751;31
2023/10/17 02:10:18;;;;;;;33.45;13.77;;;2.90;99.90;;;;;;2602955;54;20034;31
2023/10/17 02:13:00;;;;;;;31.90;14.90;;;2.90;99.90;;;;;;2603784;54;20876;31
2023/10/17 02:15:38;;;;;;;38.07;15.30;;;2.90;99.90;;;;;;2622351;46;20081;31
2023/10/17 02:18:18;;;;;;;28.83;15.70;;;2.90;99.90;;;;;;2603662;54;20648;31
2023/10/17 02:20:52;;;;;;;50.03;17.88;;;2.90;99.90;;;;;;2603536;54;20085;31
2023/10/17 02:23:29;;;;;;;38.83;17.90;;;2.80;99.90;;;;;;2603025;54;20730;31
2023/10/17 02:26:08;;;;;;;37.75;15.45;;;2.80;99.90;;;;;;2622144;46;20065;31
2023/10/17 02:28:50;;;;;;;32.58;17.23;;;2.80;99.90;;;;;;2773397;31;20600;31
2023/10/17 02:31:30;;;;;;;32.25;15.43;;;2.70;99.90;;;;;;2603608;54;20841;31
2023/10/17 02:34:09;;;;;;;36.55;13.88;;;2.70;99.90;;;;;;2603692;54;20804;31
2023/10/17 02:36:44;;;;;;;30.40;13.52;;;2.60;99.90;;;;;;2622039;46;20027;31
2023/10/17 02:39:20;;;;;;;29.80;13.63;;;2.60;99.90;;;;;;2603499;54;20029;31
2023/10/17 02:42:06;;;;;;;29.85;14.15;;;2.50;99.90;;;;;;2602860;54;20093;31
2023/10/17 02:44:45;;;;;;;29.90;13.35;;;2.50;99.90;;;;;;2603798;54;20081;31
2023/10/17 02:47:20;;;;;;;28.77;12.93;;;2.50;99.90;;;;;;2622514;46;20880;31
2023/10/17 02:49:57;;;;;;;24.40;12.20;;;2.50;99.90;;;;;;2603467;54;20133;31
2023/10/17 02:52:32;;;;;;;23.60;12.27;;;2.50;99.90;;;;;;2622105;46;20909;31
2023/10/17 02:55:09;;;;;;;21.80;12.10;;;2.50;99.90;;;;;;2603403;54;20158;31
2023/10/17 02:57:45;;;;;;;32.92;12.77;;;2.50;99.90;;;;;;2603435;54;20800;31
2023/10/17 03:00:23;;;;;;;22.00;11.55;;;2.50;99.90;;;;;;2603573;54;20105;31
2023/10/17 03:02:58;;;;;;;21.85;11.20;;;2.50;99.90;;;;;;2621717;46;20081;31
2023/10/17 03:05:34;;;;;;;27.50;12.10;;;2.50;99.90;;;;;;2603742;54;20051;31
2023/10/17 03:08:15;;;;;;;20.65;10.25;;;2.50;99.90;;;;;;2792075;31;21598;31
2023/10/17 03:10:56;;;;;;;23.90;11.13;;;2.50;99.90;;;;;;2702197;39;20529;31
2023/10/17 03:13:39;;;;;;;20.08;10.10;;;2.40;99.90;;;;;;2603753;54;20038;31
2023/10/17 03:16:17;;;;;;;19.20;9.75;;;2.50;99.90;;;;;;2603571;54;20849;31
2023/10/17 03:18:56;;;;;;;28.50;11.90;;;2.50;99.90;;;;;;2603532;54;20858;31
2023/10/17 03:21:33;;;;;;;20.50;10.20;;;2.50;99.90;;;;;;2603285;54;20056;31
2023/10/17 03:24:13;;;;;;;24.25;9.75;;;2.50;99.90;;;;;;2603666;54;20038;31
2023/10/17 03:26:54;;;;;;;19.80;8.55;;;2.50;99.90;;;;;;2603386;54;20948;31
2023/10/17 03:29:29;;;;;;;23.40;10.45;;;2.40;99.90;;;;;;2603353;54;20057;31
2023/10/17 03:32:11;;;;;;;17.35;9.38;;;2.40;99.90;;;;;;2603599;54;20022;31
2023/10/17 03:34:52;;;;;;;19.20;9.35;;;2.40;99.90;;;;;;2701838;39;21516;31
2023/10/17 03:37:33;;;;;;;18.55;8.90;;;2.30;99.90;;;;;;2603329;54;20058;31
2023/10/17 03:40:16;;;;;;;16.25;8.98;;;2.30;99.90;;;;;;2603313;54;20141;31
2023/10/17 03:42:53;;;;;;;16.90;9.20;;;2.30;99.90;;;;;;2603321;54;20934;31
2023/10/17 03:45:43;;;;;;;20.40;9.40;;;2.20;99.90;;;;;;2621867;46;20030;31
2023/10/17 03:48:20;;;;;;;22.35;9.43;;;2.20;99.90;;;;;;2603485;54;20116;31
2023/10/17 03:51:08;;;;;;;18.93;9.30;;;2.20;99.90;;;;;;2603466;54;20049;31
2023/10/17 03:53:47;;;;;;;22.13;9.30;;;2.20;99.90;;;;;;2603375;54;20068;31
2023/10/17 03:56:26;;;;;;;18.63;8.35;;;2.20;99.90;;;;;;2621542;46;20327;31
2023/10/17 03:59:18;;;;;;;20.17;8.00;;;2.20;99.90;;;;;;2603015;54;20026;31
2023/10/17 04:01:53;;;;;;;16.70;7.55;;;2.20;99.90;;;;;;2621344;46;20971;31
2023/10/17 04:04:35;;;;;;;20.55;8.40;;;2.20;99.90;;;;;;2603471;54;20081;31
2023/10/17 04:07:14;;;;;;;20.60;8.52;;;2.20;99.90;;;;;;2603293;54;20017;31
2023/10/17 04:10:17;;;;;;;14.53;8.07;;;2.10;99.90;;;;;;2621722;46;20077;31
2023/10/17 04:13:07;;;;;;;18.87;8.50;;;2.20;99.90;;;;;;2603320;54;20022;31
2023/10/17 04:15:45;;;;;;;14.18;7.60;;;2.10;99.90;;;;;;2603212;54;21061;31
2023/10/17 04:18:22;;;;;;;23.03;8.10;;;2.10;99.90;;;;;;2603372;54;20893;31
2023/10/17 04:21:12;;;;;;;15.32;6.65;;;2.00;99.90;;;;;;2603009;54;20949;31
2023/10/17 04:23:52;;;;;;;14.70;6.70;;;2.00;99.90;;;;;;2621728;46;20027;31
2023/10/17 04:26:34;;;;;;;16.52;6.57;;;2.10;99.90;;;;;;2621413;46;20068;31
2023/10/17 04:29:18;;;;;;;17.60;7.18;;;2.00;99.90;;;;;;2603322;54;20577;31
2023/10/17 04:31:56;;;;;;;17.15;6.75;;;1.90;99.90;;;;;;2603307;54;20145;31
2023/10/17 04:34:32;;;;;;;23.33;7.47;;;1.90;99.90;;;;;;2602946;54;20085;31
2023/10/17 04:37:09;;;;;;;13.90;7.10;;;1.90;99.90;;;;;;2603233;54;20089;31
2023/10/17 04:39:57;;;;;;;18.63;7.25;;;1.90;99.90;;;;;;2603215;54;20313;31
2023/10/17 04:42:47;;;;;;;19.58;6.85;;;1.90;99.90;;;;;;2603092;54;20034;31
2023/10/17 04:45:19;;;;;;;23.00;7.35;;;1.90;99.90;;;;;;2603207;54;20105;31
2023/10/17 04:48:10;;;;;;;14.05;6.75;;;1.90;99.90;;;;;;2603321;54;20908;31
2023/10/17 04:50:56;;;;;;;21.80;7.10;;;1.90;99.90;;;;;;2603189;54;20042;31
2023/10/17 04:53:35;;;;;;;14.63;6.90;;;1.90;99.90;;;;;;2621579;46;20816;31
2023/10/17 04:56:12;;;;;;;15.40;7.25;;;1.90;99.90;;;;;;2701642;39;20501;31
2023/10/17 04:58:53;;;;;;;19.23;6.88;;;1.90;99.90;;;;;;2603391;54;20180;31
2023/10/17 05:01:39;;;;;;;24.15;7.88;;;1.90;99.90;;;;;;2603145;54;20917;31
2023/10/17 05:04:20;;;;;;;19.42;7.00;;;1.90;99.90;;;;;;2603153;54;20081;31
2023/10/17 05:07:16;;;;;;;23.80;7.82;;;1.80;99.90;;;;;;2603361;54;20030;31
2023/10/17 06:18:26;;;;;;;28.27;11.55;;;2.10;99.90;;;;;;2623117;46;20029;31
2023/10/17 06:21:18;;;;;;;24.40;10.57;;;2.10;99.90;;;;;;2622811;46;20018;31
2023/10/17 06:27:11;;;;;;;27.10;12.25;;;2.20;99.90;;;;;;2604670;54;20914;31
2023/10/17 06:35:25;;;;;;;28.88;12.07;;;2.40;99.90;;;;;;2604438;54;20030;31
2023/10/17 06:38:04;;;;;;;25.25;12.35;;;2.40;99.90;;;;;;2774784;31;20472;31
2023/10/17 06:40:45;;;;;;;38.33;12.50;;;2.50;99.90;;;;;;2604345;54;20305;31
2023/10/17 06:43:27;;;;;;;26.42;11.32;;;2.50;99.90;;;;;;2609154;46;22427;31
2023/10/17 06:46:11;;;;;;;40.00;12.43;;;2.50;99.90;;;;;;2603781;54;20026;31
2023/10/17 06:48:57;;;;;;;23.50;10.45;;;2.50;99.90;;;;;;2604582;54;20023;31
2023/10/17 06:51:30;;;;;;;29.38;11.05;;;2.60;99.90;;;;;;2604753;54;20829;31
2023/10/17 06:54:13;;;;;;;21.63;11.15;;;2.70;99.90;;;;;;2604723;54;20572;31
2023/10/17 06:56:54;;;;;;;22.90;10.18;;;2.80;99.90;;;;;;2603517;54;20030;31
2023/10/17 06:59:35;;;;;;;24.33;11.23;;;2.90;99.90;;;;;;2603598;54;20849;31
2023/10/17 07:02:16;;;;;;;20.40;10.98;;;2.90;99.90;;;;;;2603786;54;20031;31
2023/10/17 07:04:55;;;;;;;31.88;14.25;;;3.00;99.90;;;;;;2602861;54;20117;31
2023/10/17 07:07:39;;;;;;;22.30;11.68;;;3.10;99.90;;;;;;2602803;54;20022;31
2023/10/17 07:10:24;;;;;;;28.33;10.88;;;3.20;99.90;;;;;;2603391;54;20873;31
2023/10/17 07:13:28;;;;;;;27.37;12.03;;;3.40;99.90;;;;;;2603393;54;20038;31
2023/10/17 07:16:11;;;;;;;26.77;11.27;;;3.60;99.90;;;;;;2621890;46;20175;31
2023/10/17 07:18:51;;;;;;;23.52;11.73;;;3.80;99.90;;;;;;2702180;39;20473;31
2023/10/17 07:21:24;;;;;;;27.75;14.85;;;4.10;99.90;;;;;;2603852;54;20026;31
2023/10/17 07:24:07;;;;;;;91.15;39.55;;;4.30;99.90;;;;;;2603677;54;20830;31
2023/10/17 07:26:45;;;;;;;116.82;51.92;;;4.40;99.90;;;;;;2621485;46;20867;31
2023/10/17 07:29:22;;;;;;;29.55;18.02;;;4.60;99.90;;;;;;2791863;31;21438;31
2023/10/17 07:32:01;;;;;;;28.25;15.20;;;4.80;99.90;;;;;;2603560;54;20841;31
2023/10/17 07:34:38;;;;;;;46.70;25.50;;;4.80;99.90;;;;;;2603465;54;20081;31
2023/10/17 07:37:22;;;;;;;44.70;27.00;;;4.90;99.90;;;;;;2603554;54;20034;31
2023/10/17 07:43:00;;;;;;;40.80;29.43;;;5.20;99.90;;;;;;2622113;46;20787;31
2023/10/17 07:45:41;;;;;;;25.73;15.50;;;5.30;99.90;;;;;;2621991;46;20033;31
2023/10/17 07:48:24;;;;;;;25.23;14.43;;;5.30;99.90;;;;;;2603480;54;19939;31
2023/10/17 07:51:04;;;;;;;24.05;13.00;;;5.40;99.90;;;;;;2603471;54;21136;31
2023/10/17 07:53:45;;;;;;;26.42;15.02;;;5.40;99.90;;;;;;2603519;54;20584;31
2023/10/17 07:56:24;;;;;;;24.13;13.27;;;5.50;99.90;;;;;;2603506;54;20853;31
2023/10/17 07:59:08;;;;;;;26.30;14.25;;;5.50;99.90;;;;;;2621651;46;20903;31
2023/10/17 08:01:57;;;;;;;24.58;14.20;;;5.60;99.90;;;;;;2603618;54;20050;31
2023/10/17 08:04:33;;;;;;;29.48;14.02;;;5.70;99.90;;;;;;2773404;31;20611;31
2023/10/17 08:07:13;;;;;;;25.55;13.88;;;5.80;99.90;;;;;;2602668;54;19943;31
2023/10/17 08:10:00;;;;;;;25.45;13.40;;;5.90;99.90;;;;;;2603382;54;20141;31
2023/10/17 08:12:35;;;;;;;27.05;15.68;;;6.00;99.90;;;;;;2603327;54;20052;31
2023/10/17 08:15:22;;;;;;;32.83;15.32;;;6.10;99.90;;;;;;2619583;46;20157;31
2023/10/17 08:17:58;;;;;;;24.55;14.85;;;6.30;99.90;;;;;;2621153;46;20023;31
2023/10/17 08:23:29;;;;;;;26.15;15.38;;;6.50;99.90;;;;;;2603368;54;20096;31
2023/10/17 08:26:03;;;;;;;27.88;17.23;;;6.70;99.90;;;;;;2612235;46;22353;31
2023/10/17 08:28:46;;;;;;;28.67;15.23;;;6.80;99.90;;;;;;2603215;54;20036;31
2023/10/17 08:31:22;;;;;;;24.05;13.50;;;6.90;99.90;;;;;;2603192;54;20036;31
2023/10/17 08:34:09;;;;;;;24.00;13.80;;;7.00;99.90;;;;;;2603184;54;20941;31
2023/10/17 08:36:46;;;;;;;27.30;13.10;;;7.10;99.90;;;;;;2603132;54;20833;31
2023/10/17 08:42:30;;;;;;;28.67;14.50;;;7.30;99.90;;;;;;2603232;54;20089;31
2023/10/17 08:45:15;;;;;;;23.05;13.80;;;7.40;99.90;;;;;;2603111;54;20818;31
2023/10/17 08:47:54;;;;;;;20.05;12.48;;;7.60;99.90;;;;;;2622015;46;20027;31
2023/10/17 08:53:12;;;;;;;;;;;7.90;99.90;;;;;;2602746;54;20026;31
2023/10/17 08:55:51;;;;;;;24.92;11.48;;;7.90;99.90;;;;;;2603544;54;19938;31
2023/10/17 08:58:32;;;;;;;24.02;13.05;;;8.00;99.90;;;;;;2602980;54;20026;31
2023/10/17 09:01:18;;;;;;;19.10;10.27;;;8.10;99.90;;;;;;2603028;54;20026;31
2023/10/17 09:03:53;;;;;;;20.03;10.83;;;8.30;99.90;;;;;;2621824;46;20066;31
2023/10/17 09:06:32;;;;;;;20.00;11.30;;;8.40;99.90;;;;;;2603302;54;20037;31
2023/10/17 09:09:21;;;;;;;21.75;11.60;;;8.50;99.90;;;;;;2603097;54;20093;31
2023/10/17 09:12:19;;;;;;;20.40;11.43;;;8.70;99.90;;;;;;2603278;54;20053;31
2023/10/17 09:14:56;;;;;;;20.15;11.15;;;8.70;99.90;;;;;;2603139;54;20810;31
2023/10/17 09:17:33;;;;;;;18.77;10.90;;;8.90;99.90;;;;;;2603249;54;20038;31
2023/10/17 09:20:20;;;;;;;118.55;50.80;;;9.00;99.90;;;;;;2602808;54;20956;31
2023/10/17 09:23:04;;;;;;;40.58;21.30;;;9.10;99.90;;;;;;2603070;54;20847;31
2023/10/17 09:25:42;;;;;;;17.73;11.40;;;9.10;99.90;;;;;;2602224;54;20808;31
2023/10/17 09:28:25;;;;;;;21.13;11.63;;;9.20;99.90;;;;;;2602306;54;20037;31
2023/10/17 09:31:03;;;;;;;20.90;10.68;;;9.20;99.90;;;;;;2700945;39;21414;31
2023/10/17 09:33:43;;;;;;;18.42;10.55;;;9.40;99.90;;;;;;2602225;54;20029;31
2023/10/17 09:36:21;;;;;;;17.45;9.95;;;9.50;99.90;;;;;;2602349;54;20944;31
2023/10/17 09:38:59;;;;;;;16.33;9.30;;;9.60;99.90;;;;;;2602473;54;20022;31
2023/10/17 09:41:35;;;;;;;15.63;9.23;;;9.70;99.90;;;;;;2602514;54;20046;31
2023/10/17 09:44:17;;;;;;;18.57;9.80;;;9.70;99.90;;;;;;2621473;46;20053;31
2023/10/17 09:46:55;;;;;;;14.05;8.25;;;9.90;99.90;;;;;;2602919;54;20802;31
2023/10/17 09:49:30;;;;;;;16.30;9.40;;;10.00;99.90;;;;;;2701612;39;21366;31
2023/10/17 09:52:09;;;;;;;19.70;10.43;;;10.10;99.90;;;;;;2602477;54;20035;31
2023/10/17 09:54:46;;;;;;;13.73;8.45;;;10.20;99.90;;;;;;2621733;47;20030;31
2023/10/17 09:57:24;;;;;;;12.80;7.93;;;10.30;99.90;;;;;;2603113;54;20030;31
2023/10/17 10:00:09;;;;;;;11.55;7.80;;;10.40;99.90;;;;;;2603055;54;20037;31
2023/10/17 10:02:46;;;;;;;14.18;8.02;;;10.50;99.90;;;;;;2602729;54;20034;31
2023/10/17 10:05:42;;;;;;;14.25;7.75;;;10.60;99.90;;;;;;2603121;54;20848;31
2023/10/17 10:08:33;;;;;;;11.75;7.30;;;10.50;99.90;;;;;;2602207;54;20901;31
2023/10/17 10:11:11;;;;;;;11.00;6.13;;;10.60;99.90;;;;;;2602989;54;20900;31
2023/10/17 10:14:08;;;;;;;8.45;4.72;;;10.70;99.90;;;;;;2602239;54;20057;31
2023/10/17 10:16:57;;;;;;;11.20;6.25;;;10.80;99.90;;;;;;2602926;54;20037;31
2023/10/17 10:20:00;;;;;;;13.02;6.70;;;11.00;99.90;;;;;;2602946;54;25043;31
2023/10/17 10:22:56;;;;;;;9.50;6.30;;;11.10;99.90;;;;;;2621240;47;20787;31
2023/10/17 10:25:31;;;;;;;11.75;6.35;;;11.20;99.90;;;;;;2602944;54;20030;31
2023/10/17 10:28:23;;;;;;;8.30;4.90;;;11.20;99.90;;;;;;2602913;54;20585;31
2023/10/17 10:30:58;;;;;;;12.43;7.10;;;11.20;99.90;;;;;;2603016;54;20964;31
2023/10/17 10:33:36;;;;;;;12.95;6.65;;;11.20;99.90;;;;;;2603423;54;20046;31
2023/10/17 10:36:13;;;;;;;13.20;6.65;;;11.30;99.90;;;;;;2603817;54;20096;31
2023/10/17 10:38:49;;;;;;;12.33;7.00;;;11.30;99.90;;;;;;2603909;54;20758;31
2023/10/17 10:41:26;;;;;;;13.73;6.75;;;11.40;99.90;;;;;;2603601;54;20825;31
2023/10/17 10:44:03;;;;;;;15.35;7.68;;;11.50;99.90;;;;;;2602813;54;21016;31
2023/10/17 10:46:40;;;;;;;15.13;7.95;;;11.60;99.90;;;;;;2616544;46;20074;31
2023/10/17 10:49:19;;;;;;;14.07;9.02;;;11.60;99.90;;;;;;2603102;54;20846;31
2023/10/17 10:51:57;;;;;;;18.40;9.70;;;11.80;99.90;;;;;;2603397;54;20920;31
2023/10/17 10:54:54;;;;;;;15.38;8.77;;;11.80;99.90;;;;;;2603815;54;20023;31
2023/10/17 10:57:34;;;;;;;21.60;11.75;;;11.80;99.90;;;;;;2603681;54;20920;31
2023/10/17 11:02:41;;;;;;;15.03;8.83;;;12.00;99.90;;;;;;2603529;54;20557;31
2023/10/17 11:05:19;;;;;;;13.20;8.50;;;12.20;99.90;;;;;;2622136;46;20054;31
2023/10/17 11:08:02;;;;;;;14.53;6.77;;;12.30;99.90;;;;;;2603485;54;19934;31
2023/10/17 11:10:39;;;;;;;14.65;9.32;;;12.40;99.90;;;;;;2621977;46;20837;31
2023/10/17 11:13:15;;;;;;;18.40;9.65;;;12.40;99.90;;;;;;2701946;39;20474;31
2023/10/17 11:15:51;;;;;;;14.25;8.35;;;12.40;99.90;;;;;;2621817;46;20036;31
2023/10/17 11:18:28;;;;;;;15.13;7.73;;;12.30;99.90;;;;;;2720301;39;20548;31
2023/10/17 11:21:08;;;;;;;;;;;12.30;99.90;;;;;;2603525;54;20030;31
2023/10/17 11:23:46;;;;;;;11.63;7.32;;;12.20;99.90;;;;;;2621789;46;20790;31
2023/10/17 11:26:25;;;;;;;89.53;44.05;;;12.20;99.90;;;;;;2622088;46;20041;31
2023/10/17 11:29:03;;;;;;;38.10;20.77;;;12.20;99.90;;;;;;2607379;46;20030;31
2023/10/17 11:31:41;;;;;;;16.10;9.75;;;12.20;99.90;;;;;;2603475;54;20076;31
2023/10/17 11:34:19;;;;;;;12.70;8.32;;;12.30;99.90;;;;;;2602590;54;20037;31
2023/10/17 11:37:02;;;;;;;11.25;7.45;;;12.30;99.90;;;;;;2603483;54;20038;31
2023/10/17 11:39:46;;;;;;;12.55;7.60;;;12.40;99.90;;;;;;2603803;54;20034;31
2023/10/17 11:42:33;;;;;;;13.40;7.00;;;12.40;99.90;;;;;;2701897;39;21723;31
2023/10/17 11:45:19;;;;;;;14.48;7.30;;;12.30;99.90;;;;;;2621936;46;20618;31
2023/10/17 11:47:58;;;;;;;11.65;7.15;;;12.20;99.90;;;;;;2603621;54;20899;31
2023/10/17 11:50:38;;;;;;;13.35;7.25;;;12.20;99.90;;;;;;2603601;54;20846;31
2023/10/17 11:53:16;;;;;;;10.37;5.80;;;12.10;99.90;;;;;;2603307;54;20823;31
2023/10/17 11:55:52;;;;;;;13.20;7.10;;;12.10;99.90;;;;;;2603289;54;21209;31
2023/10/17 11:58:29;;;;;;;10.00;6.17;;;12.00;99.90;;;;;;2603546;54;20049;31
2023/10/17 12:01:05;;;;;;;11.05;5.80;;;12.00;99.90;;;;;;2602796;54;21038;31
2023/10/17 12:03:43;;;;;;;9.07;4.93;;;12.00;99.90;;;;;;2603260;54;20935;31
2023/10/17 12:06:21;;;;;;;9.82;5.25;;;12.00;99.90;;;;;;2621939;46;20026;31
2023/10/17 12:09:04;;;;;;;9.63;5.60;;;12.00;99.90;;;;;;2621729;46;20026;31
2023/10/17 12:11:42;;;;;;;9.48;6.07;;;12.00;99.90;;;;;;2602450;54;20158;31
2023/10/17 12:14:23;;;;;;;9.90;5.47;;;11.90;99.90;;;;;;2603660;54;20026;31
2023/10/17 12:17:00;;;;;;;11.65;5.50;;;11.90;99.90;;;;;;2622093;46;20085;31
2023/10/17 12:19:35;;;;;;;9.68;5.78;;;12.00;99.90;;;;;;2603255;54;20909;31
2023/10/17 12:22:13;;;;;;;9.20;4.75;;;12.00;99.90;;;;;;2603462;54;20141;31
2023/10/17 12:24:51;;;;;;;7.55;4.90;;;11.90;99.90;;;;;;2603399;54;20912;31
2023/10/17 12:27:27;;;;;;;7.38;4.53;;;11.90;99.90;;;;;;2702012;39;20443;31
2023/10/17 12:30:04;;;;;;;;;;;11.90;99.90;;;;;;2603489;54;20029;31
2023/10/17 12:32:41;;;;;;;8.77;4.88;;;11.90;99.90;;;;;;2603295;54;20799;31
2023/10/17 12:35:21;;;;;;;7.88;4.45;;;11.90;99.90;;;;;;2603273;54;20906;31
2023/10/17 12:37:57;;;;;;;8.27;4.30;;;11.80;99.90;;;;;;2603523;54;20801;31
2023/10/17 12:40:38;;;;;;;8.55;4.55;;;11.80;99.90;;;;;;2720260;39;20760;31
2023/10/17 12:43:16;;;;;;;7.65;4.50;;;11.80;99.90;;;;;;2720361;39;20563;31
2023/10/17 12:45:55;;;;;;;6.15;4.22;;;11.80;99.90;;;;;;2621996;46;20842;31
2023/10/17 12:51:11;;;;;;;9.43;4.70;;;11.80;99.90;;;;;;2603373;54;20026;31
2023/10/17 12:53:49;;;;;;;8.40;4.78;;;11.70;99.90;;;;;;2602904;54;20596;31
2023/10/17 12:56:29;;;;;;;9.25;5.20;;;11.70;99.90;;;;;;2603180;54;20096;31
2023/10/17 12:59:12;;;;;;;9.35;4.40;;;11.70;99.90;;;;;;2603258;54;20026;31
2023/10/17 13:01:51;;;;;;;9.85;5.68;;;11.70;99.90;;;;;;2701573;39;20455;31
2023/10/17 13:04:28;;;;;;;8.93;4.07;;;11.80;99.90;;;;;;2622047;46;20030;31
2023/10/17 13:07:03;;;;;;;6.43;4.43;;;11.90;99.90;;;;;;2603240;54;20026;31
2023/10/17 13:09:41;;;;;;;8.90;4.10;;;11.80;99.90;;;;;;2621628;46;19934;31
2023/10/17 13:12:21;;;;;;;10.10;4.35;;;11.80;99.90;;;;;;2603194;54;20982;31
2023/10/17 13:15:00;;;;;;;7.93;3.85;;;11.80;99.90;;;;;;2621675;46;20985;31
2023/10/17 13:17:40;;;;;;;7.00;4.20;;;11.80;99.90;;;;;;2603088;54;20033;31
2023/10/17 13:20:21;;;;;;;7.63;4.00;;;11.90;99.90;;;;;;2621570;46;20023;31
2023/10/17 13:23:17;;;;;;;4.97;3.60;;;11.90;99.90;;;;;;2603059;54;20130;31
2023/10/17 13:25:58;;;;;;;11.50;3.80;;;11.90;99.90;;;;;;2621225;46;20890;31
2023/10/17 13:28:36;;;;;;;6.47;3.67;;;11.90;99.90;;;;;;2603148;54;20101;31
2023/10/17 13:31:14;;;;;;;9.05;3.20;;;11.80;99.90;;;;;;2621280;46;20824;31
2023/10/17 13:33:55;;;;;;;8.85;3.80;;;11.80;99.90;;;;;;2603190;54;20042;31
2023/10/17 13:36:31;;;;;;;5.40;3.25;;;11.80;99.90;;;;;;2701805;39;20523;31
2023/10/17 13:39:08;;;;;;;6.65;3.15;;;11.80;99.90;;;;;;2618200;46;20047;31
2023/10/17 13:41:45;;;;;;;8.57;2.92;;;11.80;99.90;;;;;;2598755;54;20018;31
2023/10/17 13:44:24;;;;;;;7.60;3.63;;;11.80;99.90;;;;;;2621227;46;20022;31
2023/10/17 13:47:00;;;;;;;4.80;2.97;;;11.80;99.90;;;;;;2603072;54;20845;31
2023/10/17 13:49:43;;;;;;;6.00;3.40;;;11.80;99.90;;;;;;2603173;54;20815;31
2023/10/17 13:52:22;;;;;;;6.37;3.77;;;11.80;99.90;;;;;;2603157;54;20817;31
2023/10/17 13:54:59;;;;;;;6.55;3.30;;;11.80;99.90;;;;;;2602958;54;21010;31
2023/10/17 13:57:35;;;;;;;6.53;3.22;;;11.80;99.90;;;;;;2602981;54;20034;31
2023/10/17 14:00:21;;;;;;;5.05;3.25;;;11.80;99.90;;;;;;2602973;54;20904;31
2023/10/17 14:02:58;;;;;;;5.32;3.08;;;11.80;99.90;;;;;;2603333;54;20047;31
2023/10/17 14:05:36;;;;;;;5.50;3.22;;;11.70;99.90;;;;;;2614381;47;20026;31
2023/10/17 14:08:15;;;;;;;11.43;4.63;;;11.70;99.90;;;;;;2603462;54;20034;31
2023/10/17 14:10:53;;;;;;;17.33;4.80;;;11.70;99.90;;;;;;2601833;54;20023;31
2023/10/17 14:13:33;;;;;;;10.75;3.40;;;11.70;99.90;;;;;;2602506;54;21292;31
2023/10/17 14:16:13;;;;;;;11.40;3.25;;;11.70;99.90;;;;;;2621474;46;20093;31
2023/10/17 14:19:02;;;;;;;7.50;2.65;;;11.70;99.90;;;;;;2602975;54;20037;31
2023/10/17 14:21:40;;;;;;;13.55;3.50;;;11.80;99.90;;;;;;2603747;54;20037;31
2023/10/17 14:24:27;;;;;;;5.38;3.20;;;11.70;99.90;;;;;;2603524;54;20870;31
2023/10/17 14:27:00;;;;;;;4.43;2.78;;;11.80;99.90;;;;;;2603412;54;20026;31
2023/10/17 14:29:35;;;;;;;6.00;3.00;;;11.70;99.90;;;;;;2603611;54;20970;31
2023/10/17 14:32:14;;;;;;;4.20;2.70;;;11.70;99.90;;;;;;2603773;54;20890;31
2023/10/17 14:34:52;;;;;;;5.53;3.13;;;11.70;99.90;;;;;;2622321;46;20845;31
2023/10/17 14:37:30;;;;;;;4.95;2.60;;;11.70;99.90;;;;;;2603678;54;20026;31
2023/10/17 14:40:11;;;;;;;4.68;2.72;;;11.70;99.90;;;;;;2622453;46;20050;31
2023/10/17 14:42:47;;;;;;;4.70;2.80;;;11.60;99.90;;;;;;2603753;54;20049;31
2023/10/17 14:45:25;;;;;;;5.50;2.70;;;11.70;99.90;;;;;;2603799;54;20022;31
2023/10/17 14:48:12;;;;;;;4.57;2.65;;;11.70;99.90;;;;;;2603417;54;20053;31
2023/10/17 14:50:49;;;;;;;5.07;3.47;;;11.60;99.90;;;;;;2621961;46;20066;31
2023/10/17 14:53:27;;;;;;;5.60;2.80;;;11.60;99.90;;;;;;2622330;46;20109;31
2023/10/17 14:56:21;;;;;;;2.85;1.98;;;11.70;99.90;;;;;;2603634;54;20698;31
2023/10/17 14:58:57;;;;;;;3.75;2.55;;;11.50;99.90;;;;;;2603678;54;20053;31
2023/10/17 15:01:33;;;;;;;6.15;3.53;;;11.50;99.90;;;;;;2603480;54;20800;31
2023/10/17 15:04:16;;;;;;;4.53;2.75;;;11.50;99.90;;;;;;2622078;46;20905;31
2023/10/17 15:06:54;;;;;;;5.82;3.00;;;11.40;99.90;;;;;;2603539;54;20096;31
2023/10/17 15:09:29;;;;;;;3.47;2.80;;;11.50;99.90;;;;;;2603660;54;20026;31
2023/10/17 15:12:08;;;;;;;8.50;3.38;;;11.40;99.90;;;;;;2603471;54;20848;31
2023/10/17 15:14:45;;;;;;;7.82;2.72;;;11.30;99.90;;;;;;2621850;46;20053;31
2023/10/17 15:17:26;;;;;;;5.05;3.08;;;11.30;99.90;;;;;;2621730;46;20908;31
2023/10/17 15:20:00;;;;;;;5.00;3.20;;;11.30;99.90;;;;;;2603382;54;20133;31
2023/10/17 15:22:39;;;;;;;11.75;3.35;;;11.20;99.90;;;;;;2603717;54;20036;31
2023/10/17 15:25:18;;;;;;;5.18;2.95;;;11.10;99.90;;;;;;2603526;54;20823;31
2023/10/17 15:27:54;;;;;;;6.00;3.38;;;11.10;99.90;;;;;;2603570;54;20038;31
2023/10/17 15:30:32;;;;;;;9.05;3.55;;;11.10;99.90;;;;;;2603629;54;20038;31
2023/10/17 15:33:12;;;;;;;5.97;2.83;;;11.00;99.90;;;;;;2603685;54;20053;31
2023/10/17 15:35:52;;;;;;;4.40;2.97;;;11.00;99.90;;;;;;2603339;54;20026;31
2023/10/17 15:38:32;;;;;;;5.40;2.85;;;11.00;99.90;;;;;;2603793;54;20356;31
2023/10/17 15:41:09;;;;;;;4.65;2.45;;;10.90;99.90;;;;;;2603381;54;20811;31